Praia Lusitana — CUHX4 — position and weather

sailwx.info

Track history (hours):
 
Tides and Currents Weather Stations Pressure Air Temp Water Temp Dewpoint Dewpoint Depression Visibility Wind Speed Wind Dir Waves Ship Positions

Praia Lusitana

Last reported at 2018-Apr-24 07:50 UTC. Time now 2018-Apr-24 08:48 UTC.
Position N 37°46' W 009°07'.

Length 18 m.

Type: Fishing. MMSI: 263413350.

Date/timePositionNaut miles runAvg speedWind from/ knotsBaromVisibWave heightAir tempDewpointWater temp
2018-Apr-24 07:50N 37°46' W 009°07'16 1.9
2018-Apr-23 23:23N 37°57' W 008°53'1 1.6
2018-Apr-23 23:00N 37°57' W 008°52'0 0.0
2018-Apr-23 22:30N 37°57' W 008°52'0 0.0
2018-Apr-23 22:00N 37°57' W 008°52'1 1.3
2018-Apr-23 21:30N 37°57' W 008°53'4 7.8
2018-Apr-23 21:00N 37°55' W 008°57'12 0.7
2018-Apr-23 03:07N 37°58' W 009°12'0 3.2
2018-Apr-23 03:00N 37°59' W 009°12'14 1.9
2018-Apr-22 19:13N 37°56' W 008°54'2 7.5
2018-Apr-22 19:00N 37°57' W 008°52'0 0.5
2018-Apr-22 18:30N 37°57' W 008°52'0 0.0
2018-Apr-22 18:00N 37°57' W 008°52'0 0.0
2018-Apr-22 17:30N 37°57' W 008°52'0 0.0
2018-Apr-22 17:00N 37°57' W 008°52'3 6.7
2018-Apr-22 16:30N 37°55' W 008°56'4 7.8
2018-Apr-22 16:00N 37°54' W 009°00'  
2018-Apr-20 05:54N 37°51' W 009°09'2 3.3
2018-Apr-20 05:08N 37°52' W 009°06'1 6.5
2018-Apr-20 05:00N 37°52' W 009°05'3 6.7
2018-Apr-20 04:30N 37°53' W 009°01'4 7.0
2018-Apr-20 04:00N 37°55' W 008°57'3 7.0
2018-Apr-20 03:31N 37°56' W 008°53'1 2.3
2018-Apr-20 03:01N 37°57' W 008°52'0 0.0
2018-Apr-20 02:31N 37°57' W 008°52'0 0.0
2018-Apr-20 02:00N 37°57' W 008°52'0 0.0
2018-Apr-20 01:30N 37°57' W 008°52'0 0.0
2018-Apr-20 01:00N 37°57' W 008°52'0 0.0
2018-Apr-20 00:30N 37°57' W 008°52'0 0.0
2018-Apr-20 00:01N 37°57' W 008°52'0 0.0
2018-Apr-19 23:31N 37°57' W 008°52'0 0.0
2018-Apr-19 23:00N 37°57' W 008°52'0 0.0
2018-Apr-19 22:30N 37°57' W 008°52'0 0.0
2018-Apr-19 22:00N 37°57' W 008°52'0 0.0
2018-Apr-19 21:30N 37°57' W 008°52'0 0.0
2018-Apr-19 21:00N 37°57' W 008°52'0 0.2
2018-Apr-19 20:30N 37°57' W 008°52'0 0.0
2018-Apr-19 20:00N 37°57' W 008°52'3 7.0
2018-Apr-19 19:31N 37°55' W 008°55'4 8.2
2018-Apr-19 19:00N 37°52' W 008°59'4 8.4
2018-Apr-19 18:30N 37°49' W 009°03'4 4.1
2018-Apr-19 17:27N 37°47' W 009°08'1 2.8
2018-Apr-19 16:58N 37°48' W 009°08'1 2.9
2018-Apr-19 16:30N 37°49' W 009°08'1 2.9
2018-Apr-19 16:01N 37°51' W 009°09'1 2.8
2018-Apr-19 15:30N 37°52' W 009°09'0 0.6
2018-Apr-19 15:00N 37°52' W 009°09'1 2.1
2018-Apr-19 14:30N 37°51' W 009°09'1 2.6
2018-Apr-19 13:58N 37°50' W 009°09'2 2.8
2018-Apr-19 13:21N 37°48' W 009°08'1 0.4
2018-Apr-19 12:09N 37°48' W 009°08'1 2.9
2018-Apr-19 11:50N 37°49' W 009°08'1 3.0
2018-Apr-19 11:30N 37°50' W 009°08'1 2.9
2018-Apr-19 11:00N 37°52' W 009°09'0 0.3
2018-Apr-19 09:56N 37°51' W 009°09'1 2.8
2018-Apr-19 09:31N 37°50' W 009°09'1 2.9
2018-Apr-19 09:00N 37°49' W 009°08'0 0.3
2018-Apr-19 07:31N 37°49' W 009°08'0 2.8
2018-Apr-19 07:24N 37°49' W 009°08'1 2.8
2018-Apr-19 06:59N 37°50' W 009°08'1 2.8
2018-Apr-19 06:30N 37°51' W 009°09'2 3.0
2018-Apr-19 06:00N 37°53' W 009°09'2 3.7
2018-Apr-19 05:30N 37°52' W 009°11'1 1.9
2018-Apr-19 04:59N 37°52' W 009°13'2 3.1
2018-Apr-19 04:24N 37°54' W 009°13'1 3.1
2018-Apr-19 03:58N 37°55' W 009°13'1 3.2
2018-Apr-19 03:30N 37°57' W 009°12'2 3.3
2018-Apr-19 03:00N 37°58' W 009°11'2 3.3
2018-Apr-19 02:31N 37°60' W 009°11'2 3.3
2018-Apr-19 02:01N 38°01' W 009°10'2 3.9
2018-Apr-19 01:30N 38°03' W 009°09'0 0.6
2018-Apr-19 00:59N 38°03' W 009°09'1 1.5
2018-Apr-19 00:31N 38°02' W 009°09'1 2.9
2018-Apr-19 00:00N 38°01' W 009°10'1 3.0
2018-Apr-18 23:30N 37°59' W 009°11'1 2.8
2018-Apr-18 23:00N 37°58' W 009°11'1 2.9
2018-Apr-18 22:30N 37°57' W 009°12'1 2.9
2018-Apr-18 22:00N 37°55' W 009°12'1 2.9
2018-Apr-18 21:30N 37°54' W 009°12'2 3.1
2018-Apr-18 21:00N 37°52' W 009°12'2 3.7
2018-Apr-18 20:29N 37°50' W 009°11'5 7.5
2018-Apr-18 19:51N 37°47' W 009°07'0 0.8
2018-Apr-18 19:30N 37°46' W 009°07'2 2.4
2018-Apr-18 18:52N 37°48' W 009°08'1 2.7
2018-Apr-18 18:28N 37°49' W 009°08'1 2.7
2018-Apr-18 18:00N 37°50' W 009°08'1 2.7
2018-Apr-18 17:29N 37°52' W 009°09'1 2.1
2018-Apr-18 17:00N 37°52' W 009°09'1 2.8
2018-Apr-18 16:30N 37°51' W 009°09'1 2.8
2018-Apr-18 16:01N 37°50' W 009°09'3 3.1
2018-Apr-18 14:53N 37°46' W 009°07'0 0.6
2018-Apr-18 14:29N 37°47' W 009°07'2 2.0
2018-Apr-18 13:44N 37°48' W 009°08'1 2.9
2018-Apr-18 13:31N 37°49' W 009°08'2 3.0
2018-Apr-18 13:01N 37°50' W 009°08'2 3.1
2018-Apr-18 12:30N 37°52' W 009°08'1 1.5
2018-Apr-18 12:01N 37°52' W 009°09'1 2.7
2018-Apr-18 11:30N 37°51' W 009°09'1 2.9
2018-Apr-18 11:00N 37°49' W 009°08'2 2.9
2018-Apr-18 10:14N 37°47' W 009°08'1 3.6
2018-Apr-18 09:50N 37°46' W 009°08'1 2.4
2018-Apr-18 09:27N 37°45' W 009°07'2 0.7
2018-Apr-18 06:01N 37°43' W 009°07'1 4.1
2018-Apr-18 05:48N 37°44' W 009°07'1 2.8
2018-Apr-18 05:31N 37°44' W 009°08'4 7.7
2018-Apr-18 05:00N 37°47' W 009°12'2 4.3
2018-Apr-18 04:30N 37°48' W 009°13'0 0.8
2018-Apr-18 04:00N 37°49' W 009°13'1 2.9
2018-Apr-18 03:30N 37°50' W 009°13'2 3.0
2018-Apr-18 03:00N 37°52' W 009°13'2 3.0
2018-Apr-18 02:30N 37°53' W 009°13'1 3.0
2018-Apr-18 02:00N 37°55' W 009°14'2 3.1
2018-Apr-18 01:30N 37°56' W 009°13'2 3.2
2018-Apr-18 01:00N 37°58' W 009°13'2 3.2
2018-Apr-18 00:30N 37°59' W 009°12'2 3.1
2018-Apr-18 00:00N 38°00' W 009°11'3 4.0
2018-Apr-17 23:20N 38°01' W 009°08'3 8.0
2018-Apr-17 23:00N 37°60' W 009°05'4 8.0
2018-Apr-17 22:30N 37°58' W 009°00'4 8.2
2018-Apr-17 22:01N 37°57' W 008°56'3 5.3
2018-Apr-17 21:30N 37°57' W 008°52'0 0.0
2018-Apr-17 21:00N 37°57' W 008°52'0 0.2
2018-Apr-17 20:30N 37°57' W 008°52'0 0.3
2018-Apr-17 20:00N 37°57' W 008°52'4 8.8
2018-Apr-17 19:30N 37°54' W 008°56'4 8.7
2018-Apr-17 19:01N 37°51' W 008°59'4 8.7
2018-Apr-17 18:30N 37°47' W 009°03'6 0.5
2018-Apr-17 05:51N 37°47' W 009°11'3 8.2
2018-Apr-17 05:30N 37°50' W 009°13'2 2.0
2018-Apr-17 04:33N 37°52' W 009°13'0 3.0
2018-Apr-17 04:25N 37°52' W 009°13'1 3.1
2018-Apr-17 04:00N 37°53' W 009°13'4 3.1
2018-Apr-17 02:51N 37°57' W 009°13'1 3.3
2018-Apr-17 02:30N 37°58' W 009°12'2 3.3
2018-Apr-17 02:00N 37°59' W 009°12'2 3.9
2018-Apr-17 01:30N 38°01' W 009°10'2 3.9
2018-Apr-17 01:00N 38°03' W 009°09'15 0.5
2018-Apr-15 18:06N 37°56' W 008°53'1 7.5
2018-Apr-15 18:00N 37°57' W 008°52'0 0.8
2018-Apr-15 17:30N 37°57' W 008°52'0 0.0
2018-Apr-15 17:00N 37°57' W 008°52'0 0.0
2018-Apr-15 16:30N 37°57' W 008°52'0 0.0
2018-Apr-15 16:00N 37°57' W 008°52'0 0.0
2018-Apr-15 15:29N 37°57' W 008°52'0 0.0
2018-Apr-15 15:00N 37°57' W 008°52'1 2.5
2018-Apr-15 14:30N 37°56' W 008°53'4 8.5
2018-Apr-15 14:00N 37°53' W 008°57'4 8.3
2018-Apr-15 13:30N 37°50' W 009°01'4 8.2
2018-Apr-15 13:00N 37°47' W 009°05'16 1.4
2018-Apr-15 01:42N 38°03' W 009°08'0 0.7
2018-Apr-15 01:16N 38°03' W 009°08'0 1.4
2018-Apr-15 01:00N 38°03' W 009°09'1 2.2
2018-Apr-15 00:29N 38°02' W 009°09'2 3.2
2018-Apr-15 00:00N 38°01' W 009°10'2 3.1
2018-Apr-14 23:30N 37°59' W 009°11'2 3.1
2018-Apr-14 23:00N 37°58' W 009°11'3 3.1
2018-Apr-14 22:02N 37°55' W 009°12'0 3.1
2018-Apr-14 21:53N 37°54' W 009°12'5 3.7
2018-Apr-14 20:38N 37°50' W 009°11'2 0.1
2018-Apr-14 08:30N 37°48' W 009°10'2 3.0
2018-Apr-14 07:57N 37°50' W 009°10'  
Track history (hours):
 
Tides and Currents Weather Stations Pressure Air Temp Water Temp Dewpoint Dewpoint Depression Visibility Wind Speed Wind Dir Waves Ship Positions

Praia Lusitana

Last reported at 2018-Apr-24 07:50 UTC. Time now 2018-Apr-24 08:48 UTC.
Position N 37°46' W 009°07'.

Length 18 m.

Type: Fishing. MMSI: 263413350.

Date/timePositionNaut miles runAvg speedWind from/ knotsBaromVisibWave heightAir tempDewpointWater temp
2018-Apr-24 07:50N 37°46' W 009°07'16 1.9
2018-Apr-23 23:23N 37°57' W 008°53'1 1.6
2018-Apr-23 23:00N 37°57' W 008°52'0 0.0
2018-Apr-23 22:30N 37°57' W 008°52'0 0.0
2018-Apr-23 22:00N 37°57' W 008°52'1 1.3
2018-Apr-23 21:30N 37°57' W 008°53'4 7.8
2018-Apr-23 21:00N 37°55' W 008°57'12 0.7
2018-Apr-23 03:07N 37°58' W 009°12'0 3.2
2018-Apr-23 03:00N 37°59' W 009°12'14 1.9
2018-Apr-22 19:13N 37°56' W 008°54'2 7.5
2018-Apr-22 19:00N 37°57' W 008°52'0 0.5
2018-Apr-22 18:30N 37°57' W 008°52'0 0.0
2018-Apr-22 18:00N 37°57' W 008°52'0 0.0
2018-Apr-22 17:30N 37°57' W 008°52'0 0.0
2018-Apr-22 17:00N 37°57' W 008°52'3 6.7
2018-Apr-22 16:30N 37°55' W 008°56'4 7.8
2018-Apr-22 16:00N 37°54' W 009°00'  
2018-Apr-20 05:54N 37°51' W 009°09'2 3.3
2018-Apr-20 05:08N 37°52' W 009°06'1 6.5
2018-Apr-20 05:00N 37°52' W 009°05'3 6.7
2018-Apr-20 04:30N 37°53' W 009°01'4 7.0
2018-Apr-20 04:00N 37°55' W 008°57'3 7.0
2018-Apr-20 03:31N 37°56' W 008°53'1 2.3
2018-Apr-20 03:01N 37°57' W 008°52'0 0.0
2018-Apr-20 02:31N 37°57' W 008°52'0 0.0
2018-Apr-20 02:00N 37°57' W 008°52'0 0.0
2018-Apr-20 01:30N 37°57' W 008°52'0 0.0
2018-Apr-20 01:00N 37°57' W 008°52'0 0.0
2018-Apr-20 00:30N 37°57' W 008°52'0 0.0
2018-Apr-20 00:01N 37°57' W 008°52'0 0.0
2018-Apr-19 23:31N 37°57' W 008°52'0 0.0
2018-Apr-19 23:00N 37°57' W 008°52'0 0.0
2018-Apr-19 22:30N 37°57' W 008°52'0 0.0
2018-Apr-19 22:00N 37°57' W 008°52'0 0.0
2018-Apr-19 21:30N 37°57' W 008°52'0 0.0
2018-Apr-19 21:00N 37°57' W 008°52'0 0.2
2018-Apr-19 20:30N 37°57' W 008°52'0 0.0
2018-Apr-19 20:00N 37°57' W 008°52'3 7.0
2018-Apr-19 19:31N 37°55' W 008°55'4 8.2
2018-Apr-19 19:00N 37°52' W 008°59'4 8.4
2018-Apr-19 18:30N 37°49' W 009°03'4 4.1
2018-Apr-19 17:27N 37°47' W 009°08'1 2.8
2018-Apr-19 16:58N 37°48' W 009°08'1 2.9
2018-Apr-19 16:30N 37°49' W 009°08'1 2.9
2018-Apr-19 16:01N 37°51' W 009°09'1 2.8
2018-Apr-19 15:30N 37°52' W 009°09'0 0.6
2018-Apr-19 15:00N 37°52' W 009°09'1 2.1
2018-Apr-19 14:30N 37°51' W 009°09'1 2.6
2018-Apr-19 13:58N 37°50' W 009°09'2 2.8
2018-Apr-19 13:21N 37°48' W 009°08'1 0.4
2018-Apr-19 12:09N 37°48' W 009°08'1 2.9
2018-Apr-19 11:50N 37°49' W 009°08'1 3.0
2018-Apr-19 11:30N 37°50' W 009°08'1 2.9
2018-Apr-19 11:00N 37°52' W 009°09'0 0.3
2018-Apr-19 09:56N 37°51' W 009°09'1 2.8
2018-Apr-19 09:31N 37°50' W 009°09'1 2.9
2018-Apr-19 09:00N 37°49' W 009°08'0 0.3
2018-Apr-19 07:31N 37°49' W 009°08'0 2.8
2018-Apr-19 07:24N 37°49' W 009°08'1 2.8
2018-Apr-19 06:59N 37°50' W 009°08'1 2.8
2018-Apr-19 06:30N 37°51' W 009°09'2 3.0
2018-Apr-19 06:00N 37°53' W 009°09'2 3.7
2018-Apr-19 05:30N 37°52' W 009°11'1 1.9
2018-Apr-19 04:59N 37°52' W 009°13'2 3.1
2018-Apr-19 04:24N 37°54' W 009°13'1 3.1
2018-Apr-19 03:58N 37°55' W 009°13'1 3.2
2018-Apr-19 03:30N 37°57' W 009°12'2 3.3
2018-Apr-19 03:00N 37°58' W 009°11'2 3.3
2018-Apr-19 02:31N 37°60' W 009°11'2 3.3
2018-Apr-19 02:01N 38°01' W 009°10'2 3.9
2018-Apr-19 01:30N 38°03' W 009°09'0 0.6
2018-Apr-19 00:59N 38°03' W 009°09'1 1.5
2018-Apr-19 00:31N 38°02' W 009°09'1 2.9
2018-Apr-19 00:00N 38°01' W 009°10'1 3.0
2018-Apr-18 23:30N 37°59' W 009°11'1 2.8
2018-Apr-18 23:00N 37°58' W 009°11'1 2.9
2018-Apr-18 22:30N 37°57' W 009°12'1 2.9
2018-Apr-18 22:00N 37°55' W 009°12'1 2.9
2018-Apr-18 21:30N 37°54' W 009°12'2 3.1
2018-Apr-18 21:00N 37°52' W 009°12'2 3.7
2018-Apr-18 20:29N 37°50' W 009°11'5 7.5
2018-Apr-18 19:51N 37°47' W 009°07'0 0.8
2018-Apr-18 19:30N 37°46' W 009°07'2 2.4
2018-Apr-18 18:52N 37°48' W 009°08'1 2.7
2018-Apr-18 18:28N 37°49' W 009°08'1 2.7
2018-Apr-18 18:00N 37°50' W 009°08'1 2.7
2018-Apr-18 17:29N 37°52' W 009°09'1 2.1
2018-Apr-18 17:00N 37°52' W 009°09'1 2.8
2018-Apr-18 16:30N 37°51' W 009°09'1 2.8
2018-Apr-18 16:01N 37°50' W 009°09'3 3.1
2018-Apr-18 14:53N 37°46' W 009°07'0 0.6
2018-Apr-18 14:29N 37°47' W 009°07'2 2.0
2018-Apr-18 13:44N 37°48' W 009°08'1 2.9
2018-Apr-18 13:31N 37°49' W 009°08'2 3.0
2018-Apr-18 13:01N 37°50' W 009°08'2 3.1
2018-Apr-18 12:30N 37°52' W 009°08'1 1.5
2018-Apr-18 12:01N 37°52' W 009°09'1 2.7
2018-Apr-18 11:30N 37°51' W 009°09'1 2.9
2018-Apr-18 11:00N 37°49' W 009°08'2 2.9
2018-Apr-18 10:14N 37°47' W 009°08'1 3.6
2018-Apr-18 09:50N 37°46' W 009°08'1 2.4
2018-Apr-18 09:27N 37°45' W 009°07'2 0.7
2018-Apr-18 06:01N 37°43' W 009°07'1 4.1
2018-Apr-18 05:48N 37°44' W 009°07'1 2.8
2018-Apr-18 05:31N 37°44' W 009°08'4 7.7
2018-Apr-18 05:00N 37°47' W 009°12'2 4.3
2018-Apr-18 04:30N 37°48' W 009°13'0 0.8
2018-Apr-18 04:00N 37°49' W 009°13'1 2.9
2018-Apr-18 03:30N 37°50' W 009°13'2 3.0
2018-Apr-18 03:00N 37°52' W 009°13'2 3.0
2018-Apr-18 02:30N 37°53' W 009°13'1 3.0
2018-Apr-18 02:00N 37°55' W 009°14'2 3.1
2018-Apr-18 01:30N 37°56' W 009°13'2 3.2
2018-Apr-18 01:00N 37°58' W 009°13'2 3.2
2018-Apr-18 00:30N 37°59' W 009°12'2 3.1
2018-Apr-18 00:00N 38°00' W 009°11'3 4.0
2018-Apr-17 23:20N 38°01' W 009°08'3 8.0
2018-Apr-17 23:00N 37°60' W 009°05'4 8.0
2018-Apr-17 22:30N 37°58' W 009°00'4 8.2
2018-Apr-17 22:01N 37°57' W 008°56'3 5.3
2018-Apr-17 21:30N 37°57' W 008°52'0 0.0
2018-Apr-17 21:00N 37°57' W 008°52'0 0.2
2018-Apr-17 20:30N 37°57' W 008°52'0 0.3
2018-Apr-17 20:00N 37°57' W 008°52'4 8.8
2018-Apr-17 19:30N 37°54' W 008°56'4 8.7
2018-Apr-17 19:01N 37°51' W 008°59'4 8.7
2018-Apr-17 18:30N 37°47' W 009°03'6 0.5
2018-Apr-17 05:51N 37°47' W 009°11'3 8.2
2018-Apr-17 05:30N 37°50' W 009°13'2 2.0
2018-Apr-17 04:33N 37°52' W 009°13'0 3.0
2018-Apr-17 04:25N 37°52' W 009°13'1 3.1
2018-Apr-17 04:00N 37°53' W 009°13'4 3.1
2018-Apr-17 02:51N 37°57' W 009°13'1 3.3
2018-Apr-17 02:30N 37°58' W 009°12'2 3.3
2018-Apr-17 02:00N 37°59' W 009°12'2 3.9
2018-Apr-17 01:30N 38°01' W 009°10'2 3.9
2018-Apr-17 01:00N 38°03' W 009°09'15 0.5
2018-Apr-15 18:06N 37°56' W 008°53'1 7.5
2018-Apr-15 18:00N 37°57' W 008°52'0 0.8
2018-Apr-15 17:30N 37°57' W 008°52'0 0.0
2018-Apr-15 17:00N 37°57' W 008°52'0 0.0
2018-Apr-15 16:30N 37°57' W 008°52'0 0.0
2018-Apr-15 16:00N 37°57' W 008°52'0 0.0
2018-Apr-15 15:29N 37°57' W 008°52'0 0.0
2018-Apr-15 15:00N 37°57' W 008°52'1 2.5
2018-Apr-15 14:30N 37°56' W 008°53'4 8.5
2018-Apr-15 14:00N 37°53' W 008°57'4 8.3
2018-Apr-15 13:30N 37°50' W 009°01'4 8.2
2018-Apr-15 13:00N 37°47' W 009°05'16 1.4
2018-Apr-15 01:42N 38°03' W 009°08'0 0.7
2018-Apr-15 01:16N 38°03' W 009°08'0 1.4
2018-Apr-15 01:00N 38°03' W 009°09'1 2.2
2018-Apr-15 00:29N 38°02' W 009°09'2 3.2
2018-Apr-15 00:00N 38°01' W 009°10'2 3.1
2018-Apr-14 23:30N 37°59' W 009°11'2 3.1
2018-Apr-14 23:00N 37°58' W 009°11'3 3.1
2018-Apr-14 22:02N 37°55' W 009°12'0 3.1
2018-Apr-14 21:53N 37°54' W 009°12'5 3.7
2018-Apr-14 20:38N 37°50' W 009°11'2 0.1
2018-Apr-14 08:30N 37°48' W 009°10'2 3.0
2018-Apr-14 07:57N 37°50' W 009°10'  

Dump ship's entire track history